Time;durP1;ratioP1;P1;durP2;ratioP2;P2;SDS_P1;SDS_P2;PMS_P1;PMS_P2;Temp;Humidity;BMP_temperature;BMP_pressure;BME280_temperature;BME280_humidity;BME280_pressure;Samples;Min_cycle;Max_cycle;Signal;HPM_P1;HPM_P2
2022/10/04 00:02:13;;;;;;;19.33;11.20;;;;;;;-145.18;100.00;46664.31;6152700;23;20005;-71
2022/10/04 00:04:38;;;;;;;16.30;10.67;;;;;;;-145.18;100.00;46662.34;6152911;23;20044;-71
2022/10/04 00:07:14;;;;;;;16.60;10.57;;;;;;;-145.18;100.00;46668.22;6152804;23;20014;-72
2022/10/04 00:09:46;;;;;;;18.80;10.52;;;;;;;-145.18;100.00;46664.31;6152951;23;20312;-71
2022/10/04 00:12:27;;;;;;;21.20;10.87;;;;;;;-145.18;100.00;46666.25;6152465;23;20013;-71
2022/10/04 00:14:58;;;;;;;15.63;10.63;;;;;;;-145.18;100.00;46666.25;6152665;23;20032;-71
2022/10/04 00:17:27;;;;;;;22.87;11.43;;;;;;;-145.18;100.00;46666.25;6152193;23;20001;-71
2022/10/04 00:19:54;;;;;;;20.10;10.97;;;;;;;-145.18;100.00;46664.31;6153207;23;20005;-71
2022/10/04 00:22:28;;;;;;;19.43;10.70;;;;;;;-145.18;100.00;46662.34;6152320;23;20006;-71
2022/10/04 00:25:06;;;;;;;16.80;11.23;;;;;;;-145.18;100.00;46664.31;6153395;23;20006;-71
2022/10/04 00:27:34;;;;;;;18.70;10.93;;;;;;;-145.18;100.00;46658.44;6152778;23;20005;-71
2022/10/04 00:30:02;;;;;;;20.13;11.33;;;;;;;-145.18;100.00;46668.22;6152878;23;20440;-71
2022/10/04 00:32:39;;;;;;;14.60;10.57;;;;;;;-145.18;100.00;46664.31;6152073;23;20061;-71
2022/10/04 00:35:23;;;;;;;24.50;10.80;;;;;;;-145.18;100.00;46664.31;6152921;23;20330;-71
2022/10/04 00:38:06;;;;;;;18.80;11.07;;;;;;;-145.18;100.00;46668.22;6152732;23;20005;-71
2022/10/04 00:40:38;;;;;;;22.27;11.50;;;;;;;-145.18;100.00;46666.25;6152388;23;20002;-71
2022/10/04 00:43:14;;;;;;;19.77;10.63;;;;;;;-145.18;100.00;46676.03;6152778;23;20029;-71
2022/10/04 00:45:44;;;;;;;15.30;10.27;;;;;;;-145.18;100.00;46672.13;6152848;23;20005;-71
2022/10/04 00:48:29;;;;;;;26.50;11.00;;;;;;;-145.18;100.00;46668.22;6153030;23;20001;-71
2022/10/04 00:51:01;;;;;;;18.30;11.60;;;;;;;-145.18;100.00;46670.16;6152635;23;20024;-71
2022/10/04 00:53:44;;;;;;;24.40;11.37;;;;;;;-145.18;100.00;46670.16;6151871;23;20443;-71
2022/10/04 00:56:18;;;;;;;18.90;10.77;;;;;;;-145.18;100.00;46668.22;6152492;23;20002;-71
2022/10/04 00:58:58;;;;;;;20.23;11.67;;;;;;;-145.18;100.00;46664.31;6152619;23;20006;-71
2022/10/04 01:01:27;;;;;;;20.27;11.33;;;;;;;-145.18;100.00;46670.16;6151605;23;20331;-71
2022/10/04 01:03:56;;;;;;;19.53;10.13;;;;;;;-145.18;100.00;46664.31;6152754;23;20021;-71
2022/10/04 01:06:22;;;;;;;14.40;10.27;;;;;;;-145.18;100.00;46668.22;6152142;23;20439;-71
2022/10/04 01:08:54;;;;;;;18.60;10.73;;;;;;;-145.18;100.00;46670.16;6152864;23;20021;-71
2022/10/04 01:11:26;;;;;;;17.43;10.27;;;;;;;-145.18;100.00;46670.16;6152011;23;20006;-71
2022/10/04 01:13:57;;;;;;;18.00;11.07;;;;;;;-145.18;100.00;46664.31;6152820;23;20025;-71
2022/10/04 01:16:32;;;;;;;18.67;10.57;;;;;;;-145.18;100.00;46664.31;6152412;23;20308;-71
2022/10/04 01:19:23;;;;;;;24.15;11.55;;;;;;;-145.18;100.00;46668.22;6153084;23;20092;-71
2022/10/04 01:22:06;;;;;;;17.83;11.27;;;;;;;-145.18;100.00;46674.06;6152188;23;20336;-71
2022/10/04 01:24:33;;;;;;;21.33;10.60;;;;;;;-145.18;100.00;46668.22;6152275;23;20005;-71
2022/10/04 01:26:59;;;;;;;22.77;11.37;;;;;;;-145.18;100.00;46670.16;6154939;23;20010;-71
2022/10/04 01:29:27;;;;;;;18.60;11.17;;;;;;;-145.18;100.00;46668.22;6155605;23;20390;-71
2022/10/04 01:31:54;;;;;;;21.70;11.30;;;;;;;-145.18;100.00;46676.03;6155535;23;20012;-71
2022/10/04 01:34:22;;;;;;;23.13;12.80;;;;;;;-145.18;100.00;46668.22;6155411;23;20347;-71
2022/10/04 01:36:51;;;;;;;31.00;15.13;;;;;;;-145.18;100.00;46668.22;6154985;23;20419;-71
2022/10/04 01:39:19;;;;;;;24.50;15.83;;;;;;;-145.18;100.00;46672.13;6155621;23;20020;-71
2022/10/04 01:42:03;;;;;;;27.90;14.20;;;;;;;-145.18;100.00;46668.22;6155241;23;20009;-71
2022/10/04 01:44:43;;;;;;;21.03;11.57;;;;;;;-145.18;100.00;46668.22;6155491;23;20454;-71
2022/10/04 01:47:13;;;;;;;16.57;11.13;;;;;;;-145.18;100.00;46664.31;6155201;23;20002;-71
2022/10/04 01:49:42;;;;;;;23.07;10.57;;;;;;;-145.18;100.00;46668.22;6155638;23;20458;-71
2022/10/04 01:52:23;;;;;;;17.33;11.27;;;;;;;-145.18;100.00;46672.13;6155506;23;20017;-71
2022/10/04 01:55:08;;;;;;;22.80;11.17;;;;;;;-145.18;100.00;46672.13;6156061;23;20001;-71
2022/10/04 01:57:41;;;;;;;22.20;12.30;;;;;;;-145.18;100.00;46670.16;6155116;23;20002;-71
2022/10/04 02:00:11;;;;;;;20.50;11.67;;;;;;;-145.18;100.00;46666.25;6155856;23;20001;-71
2022/10/04 02:02:50;;;;;;;18.93;11.50;;;;;;;-145.18;100.00;46672.13;6179871;23;20013;-71
2022/10/04 02:05:25;;;;;;;20.33;11.63;;;;;;;-145.18;100.00;46674.06;6214818;23;20322;-71
2022/10/04 02:07:53;;;;;;;19.63;11.65;;;;;;;-145.18;100.00;46668.22;6214498;23;20012;-71
2022/10/04 02:10:21;;;;;;;21.27;11.50;;;;;;;-145.18;100.00;46672.13;6215404;23;20019;-71
2022/10/04 02:12:49;;;;;;;19.67;12.80;;;;;;;-145.18;100.00;46674.06;6215219;23;20088;-71
2022/10/04 02:15:17;;;;;;;19.37;11.70;;;;;;;-145.18;100.00;46676.03;6215678;23;20007;-71
2022/10/04 02:17:43;;;;;;;20.63;11.87;;;;;;;-145.18;100.00;46666.25;6215467;23;20004;-71
2022/10/04 02:20:14;;;;;;;20.30;12.60;;;;;;;-145.18;100.00;46676.03;6215491;23;20019;-71
2022/10/04 02:22:42;;;;;;;20.90;12.07;;;;;;;-145.18;100.00;46672.13;6215314;23;20004;-71
2022/10/04 02:25:08;;;;;;;22.53;11.87;;;;;;;-145.18;100.00;46670.16;6214940;23;20008;-71
2022/10/04 02:27:33;;;;;;;20.77;11.97;;;;;;;-145.18;100.00;46676.03;6215452;23;20374;-71
2022/10/04 02:30:09;;;;;;;21.70;12.57;;;;;;;-145.18;100.00;46668.22;6215477;23;20107;-71
2022/10/04 02:35:20;;;;;;;18.60;12.27;;;;;;;-145.18;100.00;46670.16;6215827;23;20456;-71
2022/10/04 02:37:53;;;;;;;27.07;12.73;;;;;;;-145.18;100.00;46664.31;6214083;23;20012;-71
2022/10/04 02:40:25;;;;;;;28.10;13.23;;;;;;;-145.18;100.00;46670.16;6213769;23;20476;-71
2022/10/04 02:42:59;;;;;;;19.83;12.27;;;;;;;-145.18;100.00;46670.16;6213825;23;20010;-71
2022/10/04 02:45:41;;;;;;;18.93;12.53;;;;;;;-145.18;100.00;46672.13;6214209;23;20009;-71
2022/10/04 02:48:28;;;;;;;26.47;13.43;;;;;;;-145.18;100.00;46674.06;6213294;23;20079;-71
2022/10/04 02:50:56;;;;;;;19.10;13.73;;;;;;;-145.18;100.00;46670.16;6214032;23;20425;-71
2022/10/04 02:53:33;;;;;;;18.17;13.67;;;;;;;-145.18;100.00;46668.22;6213284;23;20001;-71
2022/10/04 02:56:01;;;;;;;23.13;14.03;;;;;;;-145.18;100.00;46670.16;6213505;23;20001;-71
2022/10/04 02:58:26;;;;;;;24.00;14.73;;;;;;;-145.18;100.00;46672.13;6213494;23;20062;-71
2022/10/04 03:00:57;;;;;;;22.47;14.47;;;;;;;-145.18;100.00;46670.16;6213977;23;20580;-70
2022/10/04 03:03:33;;;;;;;27.20;15.13;;;;;;;-145.18;100.00;46670.16;6212731;23;20017;-71
2022/10/04 03:06:10;;;;;;;26.27;15.07;;;;;;;-145.18;100.00;46668.22;6213522;23;20219;-70
2022/10/04 03:08:45;;;;;;;25.10;15.33;;;;;;;-145.18;100.00;46676.03;6213439;23;20782;-70
2022/10/04 03:11:14;;;;;;;27.77;14.93;;;;;;;-145.18;100.00;46664.31;6213288;23;20242;-70
2022/10/04 03:13:52;;;;;;;29.63;16.37;;;;;;;-145.18;100.00;46668.22;6213348;23;20080;-70
2022/10/04 03:16:18;;;;;;;30.13;15.90;;;;;;;-145.18;100.00;46668.22;6213506;23;20548;-70
2022/10/04 03:18:45;;;;;;;24.77;16.20;;;;;;;-145.18;100.00;46668.22;6213102;23;20004;-71
2022/10/04 03:21:14;;;;;;;23.07;16.03;;;;;;;-145.18;100.00;46668.22;6213323;23;20227;-71
2022/10/04 03:23:40;;;;;;;23.23;15.23;;;;;;;-145.18;100.00;46664.31;6213101;23;20023;-70
2022/10/04 03:26:49;;;;;;;21.07;14.87;;;;;;;-145.18;100.00;46668.22;6213416;23;20038;-70
2022/10/04 03:29:18;;;;;;;31.20;16.57;;;;;;;-145.18;100.00;46666.25;6212392;23;20119;-70
2022/10/04 03:31:49;;;;;;;26.27;16.90;;;;;;;-145.18;100.00;46670.16;6213789;23;20241;-70
2022/10/04 03:34:18;;;;;;;30.60;18.73;;;;;;;-145.18;100.00;46666.25;6212920;23;20254;-70
2022/10/04 03:36:46;;;;;;;28.93;19.13;;;;;;;-145.18;100.00;46668.22;6212971;23;20678;-70
2022/10/04 03:39:21;;;;;;;30.23;18.40;;;;;;;-145.18;100.00;46672.13;6212768;23;20230;-70
2022/10/04 03:41:47;;;;;;;32.20;18.15;;;;;;;-145.18;100.00;46666.25;6213546;23;20237;-70
2022/10/04 03:44:17;;;;;;;30.17;18.37;;;;;;;-145.18;100.00;46658.44;6210817;23;20008;-70
2022/10/04 03:46:44;;;;;;;27.40;17.60;;;;;;;-145.18;100.00;46666.25;6212072;23;20016;-70
2022/10/04 03:49:16;;;;;;;25.93;17.53;;;;;;;-145.18;100.00;46666.25;6212227;23;20230;-70
2022/10/04 03:51:47;;;;;;;25.83;16.60;;;;;;;-145.18;100.00;46668.22;6213134;23;20088;-70
2022/10/04 03:54:17;;;;;;;29.73;17.30;;;;;;;-145.18;100.00;46670.16;6212584;23;20087;-70
2022/10/04 03:56:43;;;;;;;27.07;17.90;;;;;;;-145.18;100.00;46666.25;6212247;23;20551;-70
2022/10/04 03:59:14;;;;;;;24.90;16.07;;;;;;;-145.18;100.00;46662.34;6210432;23;20246;-70
2022/10/04 04:01:40;;;;;;;29.60;16.83;;;;;;;-145.18;100.00;46666.25;6212283;23;20015;-70
2022/10/04 04:04:28;;;;;;;25.23;16.47;;;;;;;-145.18;100.00;46668.22;6211747;23;20020;-71
2022/10/04 04:07:05;;;;;;;32.33;16.63;;;;;;;-145.18;100.00;46664.31;6212695;23;20013;-70
2022/10/04 04:09:49;;;;;;;23.43;16.10;;;;;;;-145.18;100.00;46664.31;6212242;23;20310;-70
2022/10/04 04:12:45;;;;;;;24.40;16.70;;;;;;;-145.18;100.00;46668.22;6212418;23;20631;-70
2022/10/04 04:15:12;;;;;;;21.70;15.00;;;;;;;-145.18;100.00;46664.31;6212483;23;20639;-70
2022/10/04 04:17:43;;;;;;;26.20;14.73;;;;;;;-145.18;100.00;46662.34;6212217;23;20915;-70
2022/10/04 04:20:31;;;;;;;21.90;14.20;;;;;;;-145.18;100.00;46664.31;6212740;23;20238;-70
2022/10/04 04:23:33;;;;;;;21.43;14.20;;;;;;;-145.18;100.00;46662.34;6212453;23;20227;-69
2022/10/04 04:26:28;;;;;;;22.93;15.33;;;;;;;-145.18;100.00;46668.22;6210032;23;20001;-70
2022/10/04 04:29:03;;;;;;;25.53;15.20;;;;;;;-145.18;100.00;46666.25;6211433;23;20695;-70
2022/10/04 04:31:54;;;;;;;23.33;15.10;;;;;;;-145.18;100.00;46670.16;6212760;23;20253;-69
2022/10/04 04:34:24;;;;;;;27.17;16.47;;;;;;;-145.18;100.00;46664.31;6198679;23;20695;-69
2022/10/04 04:36:51;;;;;;;28.47;16.10;;;;;;;-145.18;100.00;46666.25;6212785;23;20244;-69
2022/10/04 04:39:33;;;;;;;25.37;16.23;;;;;;;-145.18;100.00;46666.25;6212010;23;20245;-69
2022/10/04 04:42:01;;;;;;;28.77;16.30;;;;;;;-145.18;100.00;46666.25;6213063;23;20250;-69
2022/10/04 04:44:26;;;;;;;26.87;16.63;;;;;;;-145.18;100.00;46670.16;6210999;23;20706;-70
2022/10/04 04:46:55;;;;;;;28.17;16.90;;;;;;;-145.18;100.00;46666.25;6211021;23;20238;-69
2022/10/04 04:49:22;;;;;;;22.37;15.87;;;;;;;-145.18;100.00;46674.06;6212083;23;20040;-69
2022/10/04 04:51:50;;;;;;;26.53;15.57;;;;;;;-145.18;100.00;46666.25;6212674;23;20648;-70
2022/10/04 04:54:19;;;;;;;24.30;16.20;;;;;;;-145.18;100.00;46668.22;6211262;23;20285;-69
2022/10/04 04:56:48;;;;;;;30.70;16.57;;;;;;;-145.18;100.00;46664.31;6210456;23;20254;-69
2022/10/04 04:59:15;;;;;;;26.90;17.87;;;;;;;-145.18;100.00;46666.25;6211701;23;20672;-69
2022/10/04 05:01:45;;;;;;;27.67;16.90;;;;;;;-145.18;100.00;46670.16;6211948;23;20321;-69
2022/10/04 05:04:13;;;;;;;24.37;18.70;;;;;;;-145.18;100.00;46666.25;6212055;23;20244;-70
2022/10/04 05:06:41;;;;;;;30.97;17.23;;;;;;;-145.18;100.00;46666.25;6211993;23;20309;-69
2022/10/04 05:09:22;;;;;;;25.37;17.60;;;;;;;-145.18;100.00;46664.31;6211656;23;20238;-69
2022/10/04 05:11:49;;;;;;;31.93;18.27;;;;;;;-145.18;100.00;46660.41;6212453;23;20675;-69
2022/10/04 05:14:16;;;;;;;29.80;17.93;;;;;;;-145.18;100.00;46662.34;6211464;23;20241;-69
2022/10/04 05:16:46;;;;;;;26.70;17.10;;;;;;;-145.18;100.00;46660.41;6212472;23;20761;-69
2022/10/04 05:19:20;;;;;;;30.50;16.90;;;;;;;-145.18;100.00;46668.22;6211404;23;20305;-69
2022/10/04 05:21:47;;;;;;;26.00;18.00;;;;;;;-145.18;100.00;46668.22;6212666;23;20222;-69
2022/10/04 05:24:35;;;;;;;33.70;18.10;;;;;;;-145.18;100.00;46672.13;6211682;23;20226;-69
2022/10/04 05:27:05;;;;;;;31.17;17.63;;;;;;;-145.18;100.00;46666.25;6211910;23;20293;-69
2022/10/04 05:29:34;;;;;;;36.37;18.73;;;;;;;-145.18;100.00;46664.31;6210968;23;20566;-69
2022/10/04 05:32:06;;;;;;;33.30;17.93;;;;;;;-145.18;100.00;46664.31;6185568;23;20629;-69
2022/10/04 05:34:38;;;;;;;36.47;19.43;;;;;;;-145.18;100.00;46656.50;6211395;23;20279;-69
2022/10/04 05:37:44;;;;;;;33.47;19.17;;;;;;;-145.18;100.00;46664.31;6211777;23;20670;-69
2022/10/04 05:40:12;;;;;;;32.70;19.57;;;;;;;-145.18;100.00;46664.31;6212021;23;20780;-69
2022/10/04 05:42:48;;;;;;;36.40;19.23;;;;;;;-145.18;100.00;46664.31;6211981;23;20306;-69
2022/10/04 05:45:19;;;;;;;31.42;19.58;;;;;;;-145.18;100.00;46666.25;6212200;23;20231;-69
2022/10/04 05:48:07;;;;;;;29.50;19.40;;;;;;;-145.18;100.00;46662.34;6211825;23;20011;-69
2022/10/04 05:50:39;;;;;;;31.23;18.97;;;;;;;-145.18;100.00;46664.31;6212230;23;20231;-69
2022/10/04 05:53:13;;;;;;;34.47;19.43;;;;;;;-145.18;100.00;46658.44;6211711;23;20255;-69
2022/10/04 05:55:51;;;;;;;37.20;19.27;;;;;;;-145.18;100.00;46662.34;6211428;23;20230;-69
2022/10/04 05:58:26;;;;;;;28.50;18.43;;;;;;;-145.18;100.00;46660.41;6211462;23;20230;-69
2022/10/04 06:01:15;;;;;;;35.40;19.83;;;;;;;-145.18;100.00;46656.50;6211827;23;20219;-69
2022/10/04 06:04:05;;;;;;;33.17;18.77;;;;;;;-145.18;100.00;46660.41;6211477;23;20615;-69
2022/10/04 06:06:41;;;;;;;32.03;17.97;;;;;;;-145.18;100.00;46662.34;6212443;23;20248;-69
2022/10/04 06:09:39;;;;;;;25.53;18.13;;;;;;;-145.18;100.00;46660.41;6210651;23;20675;-69
2022/10/04 06:12:29;;;;;;;26.10;16.60;;;;;;;-145.18;100.00;46664.31;6209804;23;20323;-69
2022/10/04 06:15:14;;;;;;;30.50;18.27;;;;;;;-145.18;100.00;46658.44;6210742;23;20922;-69
2022/10/04 06:17:45;;;;;;;33.08;18.92;;;;;;;-145.18;100.00;46660.41;6213550;23;20226;-69
2022/10/04 06:20:21;;;;;;;27.57;18.67;;;;;;;-145.18;100.00;46656.50;6186695;23;20008;-69
2022/10/04 06:22:55;;;;;;;31.70;18.77;;;;;;;-145.18;100.00;46660.41;6213245;23;20588;-69
2022/10/04 06:25:28;;;;;;;33.27;18.83;;;;;;;-145.18;100.00;46662.34;6213676;23;20211;-69
2022/10/04 06:28:13;;;;;;;29.13;19.77;;;;;;;-145.18;100.00;46660.41;6213644;23;20226;-69
2022/10/04 06:31:17;;;;;;;35.07;20.37;;;;;;;-145.18;100.00;46660.41;6214339;23;20231;-69
2022/10/04 06:33:45;;;;;;;37.03;20.13;;;;;;;-145.18;100.00;46662.34;6178156;23;20254;-69
2022/10/04 06:36:33;;;;;;;31.07;18.80;;;;;;;-145.18;100.00;46658.44;6213813;23;20233;-69
2022/10/04 06:39:08;;;;;;;30.10;20.23;;;;;;;-145.18;100.00;46662.34;6212994;23;20222;-69
2022/10/04 06:41:58;;;;;;;30.98;19.35;;;;;;;-145.18;100.00;46660.41;6214101;23;20229;-69
2022/10/04 06:45:08;;;;;;;36.80;19.37;;;;;;;-145.18;100.00;46664.31;6158000;23;20040;-69
2022/10/04 06:47:51;;;;;;;33.77;20.57;;;;;;;-145.18;100.00;46658.44;6151019;23;20228;-69
2022/10/04 06:50:43;;;;;;;42.67;20.97;;;;;;;-145.18;100.00;46662.34;6207871;23;20281;-69
2022/10/04 06:53:21;;;;;;;40.07;20.50;;;;;;;-145.18;100.00;46656.50;6213078;23;20325;-69
2022/10/04 06:56:06;;;;;;;35.53;19.33;;;;;;;-145.18;100.00;46658.44;6214202;23;20237;-69
2022/10/04 06:58:50;;;;;;;32.93;20.30;;;;;;;-145.18;100.00;46656.50;6213811;23;20250;-69
2022/10/04 07:01:22;;;;;;;30.67;20.00;;;;;;;-145.18;100.00;46656.50;6213237;23;20234;-69
2022/10/04 07:03:53;;;;;;;32.90;19.93;;;;;;;-145.18;100.00;46656.50;6213175;23;20583;-69
2022/10/04 07:06:28;;;;;;;28.67;18.63;;;;;;;-145.18;100.00;46656.50;6213566;23;20258;-69
2022/10/04 07:08:58;;;;;;;34.23;18.80;;;;;;;-145.18;100.00;46654.53;6213443;23;20238;-69
2022/10/04 07:11:55;;;;;;;40.97;19.33;;;;;;;-145.18;100.00;46654.53;6213741;23;20246;-69
2022/10/04 07:14:29;;;;;;;28.40;19.60;;;;;;;-145.18;100.00;46654.53;6192645;23;20347;-69
2022/10/04 07:17:01;;;;;;;30.43;19.00;;;;;;;-145.18;100.00;46654.53;6214118;23;20215;-69
2022/10/04 07:19:48;;;;;;;29.50;18.87;;;;;;;-145.18;100.00;46652.59;6213223;23;20879;-69
2022/10/04 07:22:21;;;;;;;;;;;;;;;-145.18;100.00;46650.63;6213914;23;20303;-69
2022/10/04 07:25:13;;;;;;;27.00;18.17;;;;;;;-145.18;100.00;46652.59;6213281;23;19961;-69
2022/10/04 07:29:19;;;;;;;29.63;18.03;;;;;;;-145.18;100.00;46654.53;6213969;23;20218;-69
2022/10/04 07:30:45;;;;;;;33.10;18.20;;;;;;;-145.18;100.00;46652.59;6213535;23;20655;-69
2022/10/04 07:33:17;;;;;;;31.80;19.37;;;;;;;-145.18;100.00;46652.59;6212471;23;20338;-69
2022/10/04 07:35:52;;;;;;;26.07;17.33;;;;;;;-145.18;100.00;46654.53;6213378;23;20242;-69
2022/10/04 07:38:25;;;;;;;28.60;18.13;;;;;;;-145.18;100.00;46654.53;6212941;23;20479;-69
2022/10/04 07:41:09;;;;;;;26.73;17.03;;;;;;;-145.18;100.00;46658.44;6213634;23;20304;-69
2022/10/04 07:43:45;;;;;;;22.27;16.03;;;;;;;-145.18;100.00;46652.59;6213498;23;20043;-69
2022/10/04 07:46:20;;;;;;;;;;;;;;;-145.18;100.00;46654.53;6213513;23;20082;-69
2022/10/04 07:48:48;;;;;;;22.83;15.83;;;;;;;-145.18;100.00;46656.50;6213019;23;19918;-69
2022/10/04 07:51:36;;;;;;;31.77;17.43;;;;;;;-145.18;100.00;46660.41;6213270;23;20004;-70
2022/10/04 07:54:18;;;;;;;28.83;15.67;;;;;;;-145.18;100.00;46658.44;6212483;23;20011;-69
2022/10/04 07:56:50;;;;;;;27.30;14.70;;;;;;;-145.18;100.00;46658.44;6213509;23;20076;-69
2022/10/04 07:59:54;;;;;;;26.63;15.07;;;;;;;-145.18;100.00;46660.41;6212770;23;20389;-69
2022/10/04 08:02:57;;;;;;;32.87;15.23;;;;;;;-145.18;100.00;46662.34;6212590;23;20024;-69
2022/10/04 08:05:32;;;;;;;24.60;14.00;;;;;;;-145.18;100.00;46662.34;6212789;23;20009;-70
2022/10/04 08:08:34;;;;;;;21.53;12.53;;;;;;;-145.18;100.00;46668.22;6213352;23;20027;-69
2022/10/04 08:11:09;;;;;;;22.67;12.63;;;;;;;-145.18;100.00;46668.22;6213352;23;20008;-69
2022/10/04 08:13:52;;;;;;;21.70;11.53;;;;;;;-145.18;100.00;46670.16;6212510;23;20426;-69
2022/10/04 08:16:44;;;;;;;20.60;11.87;;;;;;;-145.18;100.00;46670.16;6212686;23;20013;-69
2022/10/04 08:19:24;;;;;;;20.30;11.30;;;;;;;-145.18;100.00;46672.13;6212467;23;20005;-69
2022/10/04 08:22:19;;;;;;;29.53;11.30;;;;;;;-145.18;100.00;46677.97;6213253;23;20422;-69
2022/10/04 08:25:10;;;;;;;17.90;11.43;;;;;;;-145.18;100.00;46676.03;6212677;23;20333;-69
2022/10/04 08:31:16;;;;;;;23.27;11.83;;;;;;;-145.18;100.00;46677.97;6208870;23;20020;-69
2022/10/04 08:34:23;;;;;;;24.57;12.70;;;;;;;-145.18;100.00;46683.84;6203789;23;20015;-69
2022/10/04 08:37:16;;;;;;;21.37;12.03;;;;;;;-145.18;100.00;46679.94;6212573;23;20011;-70
2022/10/04 08:40:22;;;;;;;23.07;11.27;;;;;;;-145.18;100.00;46679.94;6212448;23;20445;-70
2022/10/04 08:43:20;;;;;;;21.30;12.88;;;;;;;-145.18;100.00;46677.97;6212509;23;20013;-70
2022/10/04 08:46:21;;;;;;;18.77;11.27;;;;;;;-145.18;100.00;46683.84;6213169;23;20374;-70
2022/10/04 08:49:35;;;;;;;17.33;11.00;;;;;;;-145.18;100.00;46681.88;6206392;23;20527;-71
2022/10/04 08:52:35;;;;;;;23.63;11.13;;;;;;;-145.18;100.00;46683.84;6183658;23;20016;-70
2022/10/04 08:55:38;;;;;;;17.27;11.17;;;;;;;-145.18;100.00;46685.78;6212277;23;20008;-70
2022/10/04 08:58:25;;;;;;;20.93;11.63;;;;;;;-145.18;100.00;46687.75;6212810;23;20039;-70
2022/10/04 09:01:27;;;;;;;20.87;10.57;;;;;;;-145.18;100.00;46685.78;6212866;23;20023;-70
2022/10/04 09:04:33;;;;;;;22.83;11.83;;;;;;;-145.18;100.00;46687.75;6212063;23;20012;-70
2022/10/04 09:07:12;;;;;;;24.13;11.13;;;;;;;-145.18;100.00;46685.78;6212387;23;20047;-70
2022/10/04 09:09:59;;;;;;;21.80;10.23;;;;;;;-145.18;100.00;46679.94;6212290;23;20004;-70
2022/10/04 09:12:48;;;;;;;18.33;10.63;;;;;;;-145.18;100.00;46681.88;6212220;23;20456;-70
2022/10/04 09:15:42;;;;;;;16.30;10.27;;;;;;;-145.18;100.00;46666.25;6211911;23;20012;-71
2022/10/04 09:18:44;;;;;;;16.10;9.63;;;;;;;-145.18;100.00;46660.41;6211913;23;20001;-70
2022/10/04 09:21:18;;;;;;;19.27;10.53;;;;;;;-145.18;100.00;46660.41;6212446;23;20047;-71
2022/10/04 09:24:02;;;;;;;20.03;10.40;;;;;;;-145.18;100.00;46642.81;6212086;23;20004;-70
2022/10/04 09:26:54;;;;;;;18.50;10.03;;;;;;;-145.18;100.00;46650.63;6212268;23;20009;-71
2022/10/04 09:29:38;;;;;;;17.20;11.47;;;;;;;-145.18;100.00;46617.41;6201759;23;20457;-71
2022/10/04 09:32:19;;;;;;;15.27;10.37;;;;;;;-145.18;100.00;46644.78;6212595;23;20036;-71
2022/10/04 09:35:05;;;;;;;19.07;8.90;;;;;;;-145.18;100.00;46582.25;6212057;23;20032;-71
2022/10/04 09:37:41;;;;;;;17.03;9.27;;;;;;;-145.18;100.00;46562.72;6212670;23;20092;-71
2022/10/04 09:40:46;;;;;;;27.13;9.75;;;;;;;-145.18;100.00;46570.53;6211950;23;20083;-71
2022/10/04 09:44:15;;;;;;;19.77;9.47;;;;;;;-145.18;100.00;46572.50;6212208;23;20020;-71
2022/10/04 09:47:02;;;;;;;15.50;8.90;;;;;;;-145.18;100.00;46578.34;6091707;23;20443;-71
2022/10/04 09:49:40;;;;;;;15.73;8.93;;;;;;;-145.18;100.00;46586.16;6213566;23;20012;-71
2022/10/04 09:52:19;;;;;;;19.73;9.73;;;;;;;-145.18;100.00;46582.25;6214766;23;20008;-71
2022/10/04 09:55:16;;;;;;;15.23;9.03;;;;;;;-145.18;100.00;46588.13;6214113;23;20036;-71
2022/10/04 09:58:14;;;;;;;19.37;9.47;;;;;;;-145.18;100.00;46590.06;6214572;23;20059;-71
2022/10/04 10:01:35;;;;;;;18.47;8.23;;;;;;;-145.18;100.00;46593.97;6214112;23;20464;-71
2022/10/04 10:04:25;;;;;;;16.07;9.30;;;;;;;-145.18;100.00;46603.75;6155328;23;20344;-71
2022/10/04 10:06:58;;;;;;;19.83;9.27;;;;;;;-145.18;100.00;46603.75;6214574;23;20100;-71
2022/10/04 10:15:21;;;;;;;14.43;8.43;;;;;;;-145.18;100.00;46597.88;6213580;23;20519;-72
2022/10/04 10:17:57;;;;;;;17.97;7.80;;;;;;;-145.18;100.00;46603.75;6214120;23;20008;-71
2022/10/04 10:20:44;;;;;;;15.48;8.27;;;;;;;-145.18;100.00;46621.31;6213493;23;20008;-71
2022/10/04 10:23:21;;;;;;;17.67;8.23;;;;;;;-145.18;100.00;46635.00;6213940;23;20009;-72
2022/10/04 10:25:57;;;;;;;15.93;8.90;;;;;;;-145.18;100.00;46638.91;6213833;23;20062;-72
2022/10/04 10:28:45;;;;;;;15.90;8.57;;;;;;;-145.18;100.00;46619.38;6213807;23;20004;-71
2022/10/04 10:31:22;;;;;;;16.50;8.43;;;;;;;-145.18;100.00;46601.78;6213456;23;20028;-72
2022/10/04 10:34:11;;;;;;;21.17;9.10;;;;;;;-145.18;100.00;46613.50;6211899;23;20032;-72
2022/10/04 10:37:04;;;;;;;14.57;8.60;;;;;;;-145.18;100.00;46636.94;6213257;23;20012;-72
2022/10/04 10:39:55;;;;;;;19.30;8.50;;;;;;;-145.18;100.00;46644.78;6212187;23;20005;-72
2022/10/04 10:42:52;;;;;;;16.83;7.73;;;;;;;-145.18;100.00;46636.94;6213639;23;20082;-72
2022/10/04 10:46:12;;;;;;;13.43;7.57;;;;;;;-145.18;100.00;46656.50;6213044;23;20080;-72
2022/10/04 10:49:07;;;;;;;19.40;9.13;;;;;;;-145.18;100.00;46640.88;6092041;23;20010;-72
2022/10/04 10:51:57;;;;;;;15.47;7.77;;;;;;;-145.18;100.00;46617.41;6092385;23;20101;-73
2022/10/04 10:54:40;;;;;;;14.43;8.03;;;;;;;-145.18;100.00;46662.34;6192572;23;20016;-73
2022/10/04 10:58:01;;;;;;;16.33;7.93;;;;;;;-145.18;100.00;46679.94;6213753;23;20089;-72
2022/10/04 11:00:56;;;;;;;15.67;7.67;;;;;;;-145.18;100.00;46656.50;6091326;23;20014;-73
2022/10/04 11:03:59;;;;;;;19.07;7.60;;;;;;;-145.18;100.00;46640.88;6211728;23;20628;-73
2022/10/04 11:06:34;;;;;;;16.17;8.67;;;;;;;-145.18;100.00;46640.88;6213544;23;20008;-73
2022/10/04 11:09:27;;;;;;;16.98;7.07;;;;;;;-145.18;100.00;46644.78;6213607;23;20009;-73
2022/10/04 11:12:46;;;;;;;15.10;8.53;;;;;;;-145.18;100.00;46654.53;6213672;23;20016;-73
2022/10/04 11:15:35;;;;;;;15.13;7.87;;;;;;;-145.18;100.00;46623.28;6091113;23;20006;-73
2022/10/04 11:18:14;;;;;;;16.47;8.03;;;;;;;-145.18;100.00;46633.06;6206915;23;20330;-73
2022/10/04 11:21:16;;;;;;;14.97;8.50;;;;;;;-145.18;100.00;46607.66;6213104;23;20434;-73
2022/10/04 11:24:20;;;;;;;15.70;8.43;;;;;;;-145.18;100.00;46623.28;6213602;23;20070;-73
2022/10/04 11:27:05;;;;;;;13.57;7.27;;;;;;;-145.18;100.00;46668.22;6208124;23;20023;-73
2022/10/04 11:29:30;;;;;;;13.73;7.00;;;;;;;-145.18;100.00;46697.50;6212939;23;20032;-73
2022/10/04 11:31:55;;;;;;;17.40;7.50;;;;;;;-145.18;100.00;46687.75;6213452;23;20315;-74
2022/10/04 11:34:39;;;;;;;16.80;7.07;;;;;;;-145.18;100.00;46697.50;6212659;23;20058;-73
2022/10/04 11:37:42;;;;;;;14.50;7.17;;;;;;;-145.18;100.00;46728.75;6213721;23;20001;-73
2022/10/04 11:40:08;;;;;;;16.80;7.87;;;;;;;-145.18;100.00;46713.13;6213389;23;20087;-73
2022/10/04 11:42:42;;;;;;;13.50;7.20;;;;;;;-145.18;100.00;46693.59;6212908;23;20040;-74
2022/10/04 11:45:07;;;;;;;10.80;6.17;;;;;;;-145.18;100.00;46730.72;6213417;23;20408;-73
2022/10/04 11:48:10;;;;;;;12.17;7.00;;;;;;;-145.18;100.00;46705.31;6213106;23;20083;-74
2022/10/04 11:50:59;;;;;;;14.23;6.80;;;;;;;-145.18;100.00;46763.91;6213189;23;20346;-74
2022/10/04 11:53:51;;;;;;;11.43;6.80;;;;;;;-145.18;100.00;46853.78;6213340;23;20009;-74
2022/10/04 11:56:28;;;;;;;14.13;6.77;;;;;;;-145.18;100.00;47123.38;6213143;23;20019;-74
2022/10/04 11:59:12;;;;;;;16.23;7.20;;;;;;;-145.18;100.00;47242.53;6213495;23;20079;-74
2022/10/04 12:01:59;;;;;;;11.47;6.20;;;;;;;-145.18;100.00;47199.56;6213553;23;20028;-74
2022/10/04 12:04:25;;;;;;;12.93;6.47;;;;;;;-145.18;100.00;47164.38;6212618;23;20438;-73
2022/10/04 12:07:10;;;;;;;11.80;6.10;;;;;;;-145.18;100.00;47158.53;6213134;23;20005;-74